^^
Saratoga-Weather Station Historical Data
Daily Summary for January 16, 2021 Units:  Both    English   Metric
Daily Weekly Monthly Yearly Custom
  High: Low: Average:
Temperature: 38.7 °F /  3.7 °C 35.2 °F /  1.8 °C 37 °F /  2.8 °C
Dew Point: 37.2 °F /  2.9 °C 34.2 °F /  1.2 °C 35.8 °F /  2.1 °C
Humidity: 96% 94% 95%
Wind Speed: 2mph /  3.2km/h - 0mph /  0km/h
Wind Gust: 3mph /  4.8km/h - -
Wind- - ENE
Pressure: 30.3 in /  1025.4 hPa 30.2 in /  1021.3 hPa -
Precipitation: 0 in /  0.0 mm    
Historical Graphs
 
 
Tabular Data for January 16, 2021
Time Temperature Dew Point Pressure Wind Wind Speed Wind Gust Humidity Rainfall Rate (Hourly) solar
00:04 38.7 °F /  3.7 °C 37 °F /  2.8 °C 30.3in /  1025.4hPa Calm     94% 0in /  0.0mm 0 W/m2
00:09 38.7 °F /  3.7 °C 37 °F /  2.8 °C 30.3in /  1025.1hPa Calm     94% 0in /  0.0mm 0 W/m2
00:14 38.5 °F /  3.6 °C 36.9 °F /  2.7 °C 30.3in /  1025.1hPa Calm     94% 0in /  0.0mm 0 W/m2
00:19 38.5 °F /  3.6 °C 36.9 °F /  2.7 °C 30.3in /  1025.1hPa Calm     94% 0in /  0.0mm 0 W/m2
00:24 38.5 °F /  3.6 °C 36.9 °F /  2.7 °C 30.3in /  1025.1hPa Calm     94% 0in /  0.0mm 0 W/m2
00:29 38.5 °F /  3.6 °C 36.9 °F /  2.7 °C 30.3in /  1025.1hPa Calm     94% 0in /  0.0mm 0 W/m2
00:34 38.3 °F /  3.5 °C 36.7 °F /  2.6 °C 30.3in /  1025.1hPa Calm     94% 0in /  0.0mm 0 W/m2
00:39 38.1 °F /  3.4 °C 36.5 °F /  2.5 °C 30.3in /  1025.1hPa Calm     94% 0in /  0.0mm 0 W/m2
00:44 38.1 °F /  3.4 °C 36.5 °F /  2.5 °C 30.3in /  1025.1hPa Calm     94% 0in /  0.0mm 0 W/m2
00:49 38.1 °F /  3.4 °C 36.5 °F /  2.5 °C 30.3in /  1025.1hPa Calm     94% 0in /  0.0mm 0 W/m2
00:54 38.1 °F /  3.4 °C 36.9 °F /  2.7 °C 30.3in /  1025.1hPa Calm   1mph /  1.6km/h 95% 0in /  0.0mm 0 W/m2
00:59 38.3 °F /  3.5 °C 37 °F /  2.8 °C 30.3in /  1025.1hPa Calm     95% 0in /  0.0mm 0 W/m2
01:04 38.3 °F /  3.5 °C 37 °F /  2.8 °C 30.3in /  1025.1hPa Calm   1mph /  1.6km/h 95% 0in /  0.0mm 0 W/m2
01:09 38.5 °F /  3.6 °C 37.2 °F /  2.9 °C 30.3in /  1025.1hPa Calm     95% 0in /  0.0mm 0 W/m2
01:14 38.5 °F /  3.6 °C 37.2 °F /  2.9 °C 30.3in /  1025.1hPa Calm     95% 0in /  0.0mm 0 W/m2
01:19 38.5 °F /  3.6 °C 37.2 °F /  2.9 °C 30.3in /  1025.1hPa Calm     95% 0in /  0.0mm 0 W/m2
01:24 38.5 °F /  3.6 °C 37.2 °F /  2.9 °C 30.3in /  1024.7hPa Calm     95% 0in /  0.0mm 0 W/m2
01:29 38.3 °F /  3.5 °C 37 °F /  2.8 °C 30.3in /  1024.7hPa Calm     95% 0in /  0.0mm 0 W/m2
01:34 38.3 °F /  3.5 °C 37 °F /  2.8 °C 30.3in /  1024.7hPa Calm     95% 0in /  0.0mm 0 W/m2
01:39 38.3 °F /  3.5 °C 37 °F /  2.8 °C 30.3in /  1024.7hPa Calm     95% 0in /  0.0mm 0 W/m2
01:44 38.3 °F /  3.5 °C 37 °F /  2.8 °C 30.3in /  1024.4hPa Calm     95% 0in /  0.0mm 0 W/m2
01:49 38.3 °F /  3.5 °C 37 °F /  2.8 °C 30.3in /  1024.7hPa Calm     95% 0in /  0.0mm 0 W/m2
01:54 38.1 °F /  3.4 °C 36.9 °F /  2.7 °C 30.3in /  1024.7hPa Calm     95% 0in /  0.0mm 0 W/m2
01:59 38.1 °F /  3.4 °C 36.9 °F /  2.7 °C 30.3in /  1024.4hPa Calm     95% 0in /  0.0mm 0 W/m2
02:04 38.1 °F /  3.4 °C 36.9 °F /  2.7 °C 30.3in /  1024.4hPa Calm     95% 0in /  0.0mm 0 W/m2
02:09 38.1 °F /  3.4 °C 36.9 °F /  2.7 °C 30.2in /  1024.0hPa Calm     95% 0in /  0.0mm 0 W/m2
02:14 38.1 °F /  3.4 °C 36.9 °F /  2.7 °C 30.2in /  1024.0hPa Calm     95% 0in /  0.0mm 0 W/m2
02:19 38.1 °F /  3.4 °C 36.9 °F /  2.7 °C 30.2in /  1024.0hPa Calm     95% 0in /  0.0mm 0 W/m2
02:24 38.1 °F /  3.4 °C 36.9 °F /  2.7 °C 30.2in /  1024.0hPa Calm     95% 0in /  0.0mm 0 W/m2
02:29 37.9 °F /  3.3 °C 36.7 °F /  2.6 °C 30.2in /  1024.0hPa Calm     95% 0in /  0.0mm 0 W/m2
02:34 37.9 °F /  3.3 °C 36.7 °F /  2.6 °C 30.2in /  1023.7hPa Calm     95% 0in /  0.0mm 0 W/m2
02:39 37.8 °F /  3.2 °C 36.5 °F /  2.5 °C 30.2in /  1023.7hPa Calm   1mph /  1.6km/h 95% 0in /  0.0mm 0 W/m2
02:44 37.6 °F /  3.1 °C 36.3 °F /  2.4 °C 30.2in /  1023.7hPa Calm     95% 0in /  0.0mm 0 W/m2
02:49 37.2 °F /  2.9 °C 36 °F /  2.2 °C 30.2in /  1023.7hPa Calm   1mph /  1.6km/h 95% 0in /  0.0mm 0 W/m2
02:54 37.2 °F /  2.9 °C 36 °F /  2.2 °C 30.2in /  1023.7hPa Calm     95% 0in /  0.0mm 0 W/m2
02:59 37 °F /  2.8 °C 35.8 °F /  2.1 °C 30.2in /  1023.7hPa Calm     95% 0in /  0.0mm 0 W/m2
03:04 37 °F /  2.8 °C 35.8 °F /  2.1 °C 30.2in /  1023.7hPa Calm     95% 0in /  0.0mm 0 W/m2
03:09 37 °F /  2.8 °C 35.8 °F /  2.1 °C 30.2in /  1023.7hPa Calm   1mph /  1.6km/h 95% 0in /  0.0mm 0 W/m2
03:14 37 °F /  2.8 °C 35.8 °F /  2.1 °C 30.2in /  1023.4hPa Calm     95% 0in /  0.0mm 0 W/m2
03:19 37 °F /  2.8 °C 35.8 °F /  2.1 °C 30.2in /  1023.4hPa Calm   1mph /  1.6km/h 95% 0in /  0.0mm 0 W/m2
03:24 37 °F /  2.8 °C 36 °F /  2.2 °C 30.2in /  1023.4hPa Calm     96% 0in /  0.0mm 0 W/m2
03:29 37.2 °F /  2.9 °C 36.1 °F /  2.3 °C 30.2in /  1023.4hPa Calm     96% 0in /  0.0mm 0 W/m2
03:34 37.2 °F /  2.9 °C 36.1 °F /  2.3 °C 30.2in /  1023.4hPa Calm     96% 0in /  0.0mm 0 W/m2
03:39 37.2 °F /  2.9 °C 36.1 °F /  2.3 °C 30.2in /  1023.4hPa Calm     96% 0in /  0.0mm 0 W/m2
03:44 37 °F /  2.8 °C 35.8 °F /  2.1 °C 30.2in /  1023.4hPa Calm     95% 0in /  0.0mm 0 W/m2
03:49 37 °F /  2.8 °C 35.8 °F /  2.1 °C 30.2in /  1023.4hPa Calm     95% 0in /  0.0mm 0 W/m2
03:54 36.9 °F /  2.7 °C 35.6 °F /  2 °C 30.2in /  1023.4hPa Calm     95% 0in /  0.0mm 0 W/m2
03:59 36.9 °F /  2.7 °C 35.6 °F /  2 °C 30.2in /  1023.4hPa Calm     95% 0in /  0.0mm 0 W/m2
04:04 36.9 °F /  2.7 °C 35.6 °F /  2 °C 30.2in /  1023.4hPa Calm     95% 0in /  0.0mm 0 W/m2
04:09 36.9 °F /  2.7 °C 35.6 °F /  2 °C 30.2in /  1023.4hPa Calm     95% 0in /  0.0mm 0 W/m2
04:14 36.9 °F /  2.7 °C 35.6 °F /  2 °C 30.2in /  1023.4hPa Calm     95% 0in /  0.0mm 0 W/m2
04:19 36.9 °F /  2.7 °C 35.6 °F /  2 °C 30.2in /  1023.4hPa Calm     95% 0in /  0.0mm 0 W/m2
04:24 36.9 °F /  2.7 °C 35.6 °F /  2 °C 30.2in /  1023.4hPa NE 1mph /  1.6km/h 1mph /  1.6km/h 95% 0in /  0.0mm 0 W/m2
04:29 36.9 °F /  2.7 °C 35.6 °F /  2 °C 30.2in /  1023.4hPa Calm     95% 0in /  0.0mm 0 W/m2
04:34 36.9 °F /  2.7 °C 35.8 °F /  2.1 °C 30.2in /  1023.4hPa East 2mph /  3.2km/h 3mph /  4.8km/h 96% 0in /  0.0mm 0 W/m2
04:39 37 °F /  2.8 °C 36 °F /  2.2 °C 30.2in /  1023.4hPa Calm   1mph /  1.6km/h 96% 0in /  0.0mm 0 W/m2
04:44 37 °F /  2.8 °C 36 °F /  2.2 °C 30.2in /  1023.4hPa Calm     96% 0in /  0.0mm 0 W/m2
04:49 37 °F /  2.8 °C 36 °F /  2.2 °C 30.2in /  1023.0hPa Calm   1mph /  1.6km/h 96% 0in /  0.0mm 0 W/m2
04:54 36.9 °F /  2.7 °C 35.8 °F /  2.1 °C 30.2in /  1023.0hPa Calm     96% 0in /  0.0mm 0 W/m2
04:59 36.9 °F /  2.7 °C 35.8 °F /  2.1 °C 30.2in /  1022.7hPa Calm     96% 0in /  0.0mm 0 W/m2
05:04 36.9 °F /  2.7 °C 35.8 °F /  2.1 °C 30.2in /  1022.7hPa Calm     96% 0in /  0.0mm 0 W/m2
05:09 36.9 °F /  2.7 °C 35.8 °F /  2.1 °C 30.2in /  1022.7hPa Calm     96% 0in /  0.0mm 0 W/m2
05:14 36.7 °F /  2.6 °C 35.6 °F /  2 °C 30.2in /  1022.7hPa Calm     96% 0in /  0.0mm 0 W/m2
05:19 36.7 °F /  2.6 °C 35.6 °F /  2 °C 30.2in /  1022.4hPa Calm   2mph /  3.2km/h 96% 0in /  0.0mm 0 W/m2
05:24 36.5 °F /  2.5 °C 35.4 °F /  1.9 °C 30.2in /  1022.4hPa Calm     96% 0in /  0.0mm 0 W/m2
05:29 36.3 °F /  2.4 °C 35.1 °F /  1.7 °C 30.2in /  1022.4hPa Calm   1mph /  1.6km/h 95% 0in /  0.0mm 0 W/m2
05:34 36.1 °F /  2.3 °C 34.9 °F /  1.6 °C 30.2in /  1022.4hPa Calm     95% 0in /  0.0mm 0 W/m2
05:39 36.1 °F /  2.3 °C 34.9 °F /  1.6 °C 30.2in /  1022.4hPa Calm     95% 0in /  0.0mm 0 W/m2
05:44 36 °F /  2.2 °C 34.9 °F /  1.6 °C 30.2in /  1022.4hPa Calm     96% 0in /  0.0mm 0 W/m2
05:49 36 °F /  2.2 °C 34.9 °F /  1.6 °C 30.2in /  1022.4hPa Calm     96% 0in /  0.0mm 0 W/m2
05:54 36 °F /  2.2 °C 34.7 °F /  1.5 °C 30.2in /  1022.4hPa Calm     95% 0in /  0.0mm 0 W/m2
05:59 36 °F /  2.2 °C 34.9 °F /  1.6 °C 30.2in /  1022.4hPa Calm     96% 0in /  0.0mm 0 W/m2
06:04 36 °F /  2.2 °C 34.9 °F /  1.6 °C 30.2in /  1022.4hPa Calm     96% 0in /  0.0mm 0 W/m2
06:09 36 °F /  2.2 °C 34.9 °F /  1.6 °C 30.2in /  1022.4hPa Calm     96% 0in /  0.0mm 0 W/m2
06:14 36 °F /  2.2 °C 34.9 °F /  1.6 °C 30.2in /  1022.4hPa Calm     96% 0in /  0.0mm 0 W/m2
06:19 36 °F /  2.2 °C 34.9 °F /  1.6 °C 30.2in /  1022.0hPa Calm     96% 0in /  0.0mm 0 W/m2
06:24 36 °F /  2.2 °C 34.9 °F /  1.6 °C 30.2in /  1022.0hPa Calm     96% 0in /  0.0mm 0 W/m2
06:29 36 °F /  2.2 °C 34.9 °F /  1.6 °C 30.2in /  1021.7hPa Calm     96% 0in /  0.0mm 0 W/m2
06:34 36 °F /  2.2 °C 34.9 °F /  1.6 °C 30.2in /  1021.7hPa Calm     96% 0in /  0.0mm 0 W/m2
06:39 36 °F /  2.2 °C 34.9 °F /  1.6 °C 30.2in /  1022.0hPa Calm     96% 0in /  0.0mm 0 W/m2
06:44 36 °F /  2.2 °C 34.9 °F /  1.6 °C 30.2in /  1022.0hPa Calm     96% 0in /  0.0mm 0 W/m2
06:49 36 °F /  2.2 °C 34.9 °F /  1.6 °C 30.2in /  1022.0hPa Calm     96% 0in /  0.0mm 0 W/m2
06:54 36 °F /  2.2 °C 34.9 °F /  1.6 °C 30.2in /  1022.0hPa Calm     96% 0in /  0.0mm 0 W/m2
06:59 36 °F /  2.2 °C 34.9 °F /  1.6 °C 30.2in /  1022.0hPa Calm     96% 0in /  0.0mm 0 W/m2
07:04 35.8 °F /  2.1 °C 34.7 °F /  1.5 °C 30.2in /  1022.0hPa Calm     96% 0in /  0.0mm 0 W/m2
07:09 35.8 °F /  2.1 °C 34.7 °F /  1.5 °C 30.2in /  1021.7hPa Calm     96% 0in /  0.0mm 0 W/m2
07:14 35.6 °F /  2 °C 34.5 °F /  1.4 °C 30.2in /  1021.7hPa Calm     96% 0in /  0.0mm 0 W/m2
07:19 35.6 °F /  2 °C 34.5 °F /  1.4 °C 30.2in /  1021.7hPa Calm     96% 0in /  0.0mm 0 W/m2
07:24 35.4 °F /  1.9 °C 34.3 °F /  1.3 °C 30.2in /  1021.3hPa Calm     96% 0in /  0.0mm 0 W/m2
07:29 35.4 °F /  1.9 °C 34.3 °F /  1.3 °C 30.2in /  1021.3hPa Calm     96% 0in /  0.0mm 0 W/m2
07:34 35.2 °F /  1.8 °C 34.2 °F /  1.2 °C 30.2in /  1021.3hPa Calm     96% 0in /  0.0mm 0 W/m2
07:39 35.2 °F /  1.8 °C 34.2 °F /  1.2 °C 30.2in /  1021.3hPa Calm     96% 0in /  0.0mm 0 W/m2
07:44 35.2 °F /  1.8 °C 34.2 °F /  1.2 °C 30.2in /  1021.3hPa Calm   1mph /  1.6km/h 96% 0in /  0.0mm 0 W/m2
07:49 35.2 °F /  1.8 °C 34.2 °F /  1.2 °C 30.2in /  1021.3hPa Calm   1mph /  1.6km/h 96% 0in /  0.0mm 5 W/m2
07:54 35.2 °F /  1.8 °C 34.2 °F /  1.2 °C 30.2in /  1021.3hPa Calm     96% 0in /  0.0mm 9 W/m2
07:59 35.2 °F /  1.8 °C 34.2 °F /  1.2 °C 30.2in /  1021.3hPa Calm   1mph /  1.6km/h 96% 0in /  0.0mm 12 W/m2
08:05 35.2 °F /  1.8 °C 34.2 °F /  1.2 °C 30.2in /  1021.3hPa Calm     96% 0in /  0.0mm 16 W/m2
Juneau County Weather
Compliments of Weather Underground - 4 mb